createdAt,value
2018-07-13T00:01:50.277Z,7.10
2018-07-13T00:04:25.682Z,8.83
2018-07-13T00:06:53.789Z,7.87
2018-07-13T00:09:21.897Z,7.10
2018-07-13T00:11:50.072Z,7.57
2018-07-13T00:14:23.202Z,7.37
2018-07-13T00:16:52.463Z,7.20
2018-07-13T00:19:21.135Z,8.37
2018-07-13T00:21:49.289Z,7.67
2018-07-13T00:24:17.769Z,8.23
2018-07-13T00:26:45.835Z,9.60
2018-07-13T00:29:13.905Z,7.83
2018-07-13T00:31:42.774Z,8.47
2018-07-13T00:34:10.848Z,9.27
2018-07-13T00:36:38.921Z,7.73
2018-07-13T00:39:08.191Z,8.07
2018-07-13T00:41:36.260Z,8.57
2018-07-13T00:44:04.887Z,8.70
2018-07-13T00:46:32.975Z,9.27
2018-07-13T00:49:01.030Z,8.60
2018-07-13T00:51:29.087Z,8.20
2018-07-13T00:53:57.175Z,10.20
2018-07-13T00:56:25.250Z,8.90
2018-07-13T00:58:53.314Z,8.40
2018-07-13T01:01:21.375Z,8.13
2018-07-13T01:03:49.438Z,8.40
2018-07-13T01:06:17.514Z,8.20
2018-07-13T01:08:45.607Z,10.33
2018-07-13T01:11:13.682Z,7.87
2018-07-13T01:13:41.756Z,8.97
2018-07-13T01:16:09.828Z,8.40
2018-07-13T01:18:37.886Z,8.03
2018-07-13T01:21:06.044Z,8.00
2018-07-13T01:23:34.111Z,9.80
2018-07-13T01:26:02.184Z,8.60
2018-07-13T01:28:30.267Z,9.40
2018-07-13T01:30:58.369Z,9.77
2018-07-13T01:33:26.432Z,9.70
2018-07-13T01:35:54.520Z,8.93
2018-07-13T01:38:22.598Z,8.80
2018-07-13T01:40:50.688Z,9.43
2018-07-13T01:43:18.759Z,8.40
2018-07-13T01:45:46.847Z,8.83
2018-07-13T01:48:14.914Z,8.87
2018-07-13T01:50:42.994Z,10.27
2018-07-13T01:53:11.101Z,9.03
2018-07-13T01:55:39.258Z,10.10
2018-07-13T01:58:07.286Z,9.07
2018-07-13T02:00:35.344Z,9.93
2018-07-13T02:03:03.426Z,10.03
2018-07-13T02:05:31.528Z,11.03
2018-07-13T02:07:59.652Z,9.73
2018-07-13T02:10:27.715Z,9.83
2018-07-13T02:12:55.784Z,10.33
2018-07-13T02:15:23.864Z,10.50
2018-07-13T02:17:51.993Z,10.27
2018-07-13T02:20:20.049Z,13.40
2018-07-13T02:22:48.126Z,9.70
2018-07-13T02:25:16.183Z,9.80
2018-07-13T02:27:44.251Z,9.50
2018-07-13T02:30:12.319Z,8.93
2018-07-13T02:32:40.448Z,9.30
2018-07-13T02:35:08.527Z,8.80
2018-07-13T02:37:36.597Z,8.87
2018-07-13T02:40:04.889Z,9.97
2018-07-13T02:42:32.964Z,9.60
2018-07-13T02:45:01.017Z,8.77
2018-07-13T02:47:29.076Z,9.50
2018-07-13T02:49:57.152Z,9.67
2018-07-13T02:52:25.227Z,8.87
2018-07-13T02:54:53.323Z,9.80
2018-07-13T02:57:21.407Z,9.70
2018-07-13T02:59:49.459Z,10.03
2018-07-13T03:02:17.523Z,8.93
2018-07-13T03:04:45.584Z,9.47
2018-07-13T03:07:13.735Z,8.93
2018-07-13T03:09:41.806Z,10.37
2018-07-13T03:12:09.892Z,9.73
2018-07-13T03:14:38.150Z,9.83
2018-07-13T03:17:06.252Z,10.57
2018-07-13T03:19:34.316Z,11.53
2018-07-13T03:22:02.466Z,13.23
2018-07-13T03:24:30.521Z,10.67
2018-07-13T03:26:58.618Z,9.97
2018-07-13T03:29:26.680Z,10.27
2018-07-13T03:31:54.758Z,10.30
2018-07-13T03:34:22.830Z,10.17
2018-07-13T03:36:50.928Z,10.07
2018-07-13T03:39:18.995Z,10.60
2018-07-13T03:41:47.079Z,9.43
2018-07-13T03:44:15.159Z,11.97
2018-07-13T03:46:43.231Z,9.43
2018-07-13T03:49:11.290Z,10.63
2018-07-13T03:51:39.407Z,9.73
2018-07-13T03:54:07.467Z,9.00
2018-07-13T03:56:35.559Z,9.10
2018-07-13T03:59:03.715Z,10.43
2018-07-13T04:01:31.783Z,13.43
2018-07-13T04:03:59.880Z,10.10
2018-07-13T04:06:27.998Z,9.70
2018-07-13T04:08:56.017Z,9.37
2018-07-13T04:11:24.084Z,9.70
2018-07-13T04:13:52.192Z,10.67
2018-07-13T04:16:20.843Z,11.20
2018-07-13T04:18:48.941Z,8.73
2018-07-13T04:21:17.009Z,13.03
2018-07-13T04:23:45.071Z,8.00
2018-07-13T04:26:13.139Z,9.90
2018-07-13T04:28:41.317Z,9.40
2018-07-13T04:31:09.268Z,10.40
2018-07-13T04:33:37.463Z,8.00
2018-07-13T04:36:05.499Z,8.60
2018-07-13T04:38:33.571Z,9.43
2018-07-13T04:41:01.743Z,9.40
2018-07-13T04:43:29.763Z,9.20
2018-07-13T04:45:57.848Z,9.10
2018-07-13T04:48:25.928Z,8.93
2018-07-13T04:50:54.027Z,9.80
2018-07-13T04:53:22.115Z,10.10
2018-07-13T04:55:50.190Z,9.53
2018-07-13T04:58:18.275Z,9.70
2018-07-13T05:00:46.337Z,8.87
2018-07-13T05:03:14.404Z,9.23
2018-07-13T05:05:42.469Z,8.57
2018-07-13T05:08:10.541Z,8.30
2018-07-13T05:10:38.613Z,10.97
2018-07-13T05:13:06.727Z,9.20
2018-07-13T05:15:34.793Z,8.63
2018-07-13T05:18:02.866Z,10.20
2018-07-13T05:20:30.938Z,9.23
2018-07-13T05:22:59.027Z,10.33
2018-07-13T05:25:27.147Z,13.80
2018-07-13T05:27:55.399Z,9.70
2018-07-13T05:30:23.452Z,11.40
2018-07-13T05:32:51.622Z,10.30
2018-07-13T05:35:19.792Z,9.90
2018-07-13T05:37:47.980Z,9.13
2018-07-13T05:40:16.122Z,11.73
2018-07-13T05:42:44.216Z,10.10
2018-07-13T05:45:12.355Z,12.77
2018-07-13T05:47:40.468Z,13.27
2018-07-13T05:50:08.625Z,15.80
2018-07-13T05:52:36.698Z,16.00
2018-07-13T05:55:04.800Z,13.37
2018-07-13T05:57:32.883Z,11.57
2018-07-13T06:00:00.990Z,14.33
2018-07-13T06:02:29.054Z,13.10
2018-07-13T06:04:57.135Z,13.97
2018-07-13T06:07:25.763Z,15.57
2018-07-13T06:09:53.864Z,12.40
2018-07-13T06:12:21.982Z,17.43
2018-07-13T06:14:50.147Z,12.50
2018-07-13T06:17:18.238Z,12.90
2018-07-13T06:19:46.290Z,12.10
2018-07-13T06:22:14.359Z,21.07
2018-07-13T06:24:42.462Z,13.70
2018-07-13T06:27:10.572Z,12.67
2018-07-13T06:29:38.635Z,12.13
2018-07-13T06:32:06.744Z,17.10
2018-07-13T06:34:34.900Z,13.77
2018-07-13T06:37:03.013Z,12.70
2018-07-13T06:39:31.143Z,14.50
2018-07-13T06:41:59.207Z,13.53
2018-07-13T06:44:27.350Z,15.90
2018-07-13T06:46:55.478Z,14.03
2018-07-13T06:49:23.551Z,13.10
2018-07-13T06:51:51.691Z,10.77
2018-07-13T06:54:19.807Z,12.63
2018-07-13T06:56:47.932Z,10.50
2018-07-13T06:59:17.326Z,11.33
2018-07-13T07:01:45.779Z,10.83
2018-07-13T07:04:35.930Z,10.70
2018-07-13T07:07:17.805Z,10.13
2018-07-13T07:09:47.531Z,10.23
2018-07-13T07:12:52.826Z,8.90
2018-07-13T07:15:21.728Z,9.20
2018-07-13T07:17:49.870Z,9.93
2018-07-13T07:20:17.890Z,8.30
2018-07-13T07:22:46.646Z,8.60
2018-07-13T07:25:15.334Z,9.83
2018-07-13T07:27:43.914Z,9.30
2018-07-13T07:30:12.632Z,7.90
2018-07-13T07:32:40.683Z,7.47
2018-07-13T07:35:09.393Z,7.20
2018-07-13T07:37:37.772Z,7.30
2018-07-13T07:40:05.943Z,7.83
2018-07-13T07:42:34.183Z,6.80
2018-07-13T07:45:02.317Z,9.63
2018-07-13T07:47:30.385Z,5.63
2018-07-13T07:49:58.591Z,7.63
2018-07-13T07:52:26.706Z,6.50
2018-07-13T07:54:55.042Z,10.70
2018-07-13T07:57:23.774Z,6.53
2018-07-13T07:59:52.028Z,8.10
2018-07-13T08:02:20.909Z,7.00
2018-07-13T08:04:49.152Z,10.27
2018-07-13T08:07:17.567Z,19.20
2018-07-13T08:09:45.466Z,7.77
2018-07-13T08:12:13.531Z,5.50
2018-07-13T08:14:41.690Z,5.30
2018-07-13T08:17:09.754Z,4.23
2018-07-13T08:19:38.037Z,10.27
2018-07-13T08:22:14.607Z,4.30
2018-07-13T08:24:43.927Z,6.40
2018-07-13T08:27:15.699Z,3.93
2018-07-13T08:29:43.786Z,7.23
2018-07-13T08:32:11.879Z,5.63
2018-07-13T08:34:39.955Z,6.00
2018-07-13T08:37:08.171Z,7.33
2018-07-13T08:39:36.387Z,6.10
2018-07-13T08:42:04.611Z,4.03
2018-07-13T08:44:32.978Z,12.10
2018-07-13T08:47:01.193Z,6.97
2018-07-13T08:49:29.353Z,5.63
2018-07-13T08:51:57.553Z,5.73
2018-07-13T08:54:26.407Z,4.37
2018-07-13T08:56:55.114Z,5.00
2018-07-13T08:59:24.513Z,6.10
2018-07-13T09:01:52.706Z,6.47
2018-07-13T09:04:20.958Z,8.70
2018-07-13T09:06:49.140Z,5.60
2018-07-13T09:09:18.353Z,6.50
2018-07-13T09:11:47.174Z,7.23
2018-07-13T09:14:15.371Z,4.70
2018-07-13T09:16:43.565Z,5.23
2018-07-13T09:19:11.743Z,7.10
2018-07-13T09:21:39.928Z,4.87
2018-07-13T09:24:08.131Z,4.77
2018-07-13T09:26:36.492Z,5.00
2018-07-13T09:29:04.664Z,5.30
2018-07-13T09:31:32.797Z,6.43
2018-07-13T09:34:00.942Z,4.87
2018-07-13T09:36:29.181Z,5.80
2018-07-13T09:38:57.368Z,8.13
2018-07-13T09:41:25.488Z,3.93
2018-07-13T09:43:53.562Z,7.43
2018-07-13T09:46:21.621Z,7.17
2018-07-13T09:48:49.703Z,6.80
2018-07-13T09:51:18.527Z,4.53
2018-07-13T09:53:46.697Z,5.50
2018-07-13T09:56:17.184Z,6.00
2018-07-13T09:58:45.327Z,5.80
2018-07-13T10:01:20.395Z,4.83
2018-07-13T10:03:48.503Z,4.43
2018-07-13T10:06:16.589Z,4.63
2018-07-13T10:08:44.694Z,5.13
2018-07-13T10:11:12.745Z,4.50
2018-07-13T10:13:40.967Z,6.20
2018-07-13T10:16:09.061Z,3.40
2018-07-13T10:18:38.702Z,3.73
2018-07-13T10:21:07.963Z,4.13
2018-07-13T10:23:36.152Z,5.20
2018-07-13T10:26:08.247Z,4.10
2018-07-13T10:28:38.686Z,5.20
2018-07-13T10:31:07.106Z,3.63
2018-07-13T10:33:36.172Z,4.10
2018-07-13T10:36:04.891Z,3.70
2018-07-13T10:38:33.063Z,4.10
2018-07-13T10:41:01.902Z,4.80
2018-07-13T10:43:30.142Z,5.30
2018-07-13T10:45:58.356Z,3.93
2018-07-13T10:48:26.543Z,6.63
2018-07-13T10:50:54.703Z,5.57
2018-07-13T10:53:22.898Z,4.33
2018-07-13T10:55:51.020Z,6.13
2018-07-13T10:58:19.224Z,4.17
2018-07-13T11:00:47.427Z,5.40
2018-07-13T11:03:15.683Z,4.50
2018-07-13T11:05:43.889Z,3.70
2018-07-13T11:08:12.120Z,4.00
2018-07-13T11:10:40.328Z,5.60
2018-07-13T11:13:08.568Z,4.17
2018-07-13T11:15:36.793Z,4.83
2018-07-13T11:18:05.145Z,4.83
2018-07-13T11:20:33.340Z,4.80
2018-07-13T11:23:01.524Z,3.67
2018-07-13T11:25:29.881Z,7.00
2018-07-13T11:27:58.113Z,5.27
2018-07-13T11:30:26.292Z,5.10
2018-07-13T11:32:54.524Z,3.93
2018-07-13T11:35:22.778Z,3.50
2018-07-13T11:37:51.005Z,3.73
2018-07-13T11:40:19.198Z,3.63
2018-07-13T11:42:47.401Z,6.57
2018-07-13T11:45:15.602Z,6.10
2018-07-13T11:47:45.016Z,3.67
2018-07-13T11:50:13.216Z,8.60
2018-07-13T11:52:41.441Z,5.10
2018-07-13T11:55:09.672Z,4.00
2018-07-13T11:57:38.978Z,4.90
2018-07-13T12:00:07.888Z,3.47
2018-07-13T12:02:36.215Z,5.40
2018-07-13T12:05:04.444Z,3.73
2018-07-13T12:07:32.696Z,3.33
2018-07-13T12:10:00.892Z,4.13
2018-07-13T12:12:29.138Z,3.80
2018-07-13T12:14:57.319Z,4.00
2018-07-13T12:17:25.572Z,4.67
2018-07-13T12:19:53.738Z,3.77
2018-07-13T12:22:22.012Z,3.10
2018-07-13T12:24:50.192Z,4.03
2018-07-13T12:27:18.449Z,3.47
2018-07-13T12:29:46.625Z,3.83
2018-07-13T12:32:14.837Z,4.00
2018-07-13T12:34:43.067Z,3.40
2018-07-13T12:37:11.261Z,3.27
2018-07-13T12:39:39.736Z,3.70
2018-07-13T12:42:07.909Z,2.97
2018-07-13T12:44:36.112Z,5.33
2018-07-13T12:47:04.330Z,4.33
2018-07-13T12:49:32.544Z,3.53
2018-07-13T12:52:00.812Z,3.40
2018-07-13T12:54:29.018Z,3.80
2018-07-13T12:56:57.234Z,4.47
2018-07-13T12:59:25.453Z,6.93
2018-07-13T13:01:53.660Z,3.10
2018-07-13T13:04:21.871Z,3.47
2018-07-13T13:06:50.048Z,3.03
2018-07-13T13:09:18.328Z,4.73
2018-07-13T13:11:46.503Z,3.37
2018-07-13T13:14:14.685Z,3.20
2018-07-13T13:16:42.871Z,4.23
2018-07-13T13:19:11.071Z,4.60
2018-07-13T13:21:39.548Z,4.67
2018-07-13T13:24:07.744Z,2.90
2018-07-13T13:26:35.956Z,3.53
2018-07-13T13:29:04.388Z,4.97
2018-07-13T13:31:32.605Z,3.37
2018-07-13T13:34:00.804Z,3.17
2018-07-13T13:36:28.976Z,4.13
2018-07-13T13:38:57.206Z,3.67
2018-07-13T13:41:25.399Z,4.20
2018-07-13T13:43:53.588Z,3.50
2018-07-13T13:46:21.804Z,3.43
2018-07-13T13:48:49.960Z,2.93
2018-07-13T13:51:18.156Z,3.40
2018-07-13T13:53:46.363Z,3.43
2018-07-13T13:56:14.537Z,3.63
2018-07-13T13:58:42.736Z,3.20
2018-07-13T14:01:10.928Z,2.63
2018-07-13T14:03:39.131Z,5.63
2018-07-13T14:06:07.312Z,4.13
2018-07-13T14:08:35.502Z,3.10
2018-07-13T14:11:03.743Z,4.83
2018-07-13T14:13:31.980Z,5.17
2018-07-13T14:16:00.232Z,4.03
2018-07-13T14:18:28.448Z,3.10
2018-07-13T14:20:56.664Z,2.63
2018-07-13T14:23:24.897Z,3.20
2018-07-13T14:25:53.061Z,2.67
2018-07-13T14:28:21.328Z,2.50
2018-07-13T14:30:49.576Z,8.67
2018-07-13T14:33:17.798Z,3.13
2018-07-13T14:35:46.032Z,3.50
2018-07-13T14:38:14.225Z,3.97
2018-07-13T14:40:42.509Z,2.27
2018-07-13T14:43:10.827Z,2.60
2018-07-13T14:45:39.044Z,8.53
2018-07-13T14:48:07.293Z,5.00
2018-07-13T14:50:35.482Z,4.07
2018-07-13T14:53:06.937Z,3.63
2018-07-13T14:55:35.924Z,4.30
2018-07-13T14:58:04.123Z,3.57
2018-07-13T15:00:33.351Z,3.50
2018-07-13T15:03:03.560Z,4.00
2018-07-13T15:05:31.834Z,3.63
2018-07-13T15:08:00.027Z,4.07
2018-07-13T15:10:28.216Z,3.90
2018-07-13T15:12:56.443Z,4.77
2018-07-13T15:15:24.638Z,3.80
2018-07-13T15:17:52.772Z,3.00
2018-07-13T15:20:20.866Z,4.13
2018-07-13T15:22:48.918Z,3.40
2018-07-13T15:25:16.975Z,6.00
2018-07-13T15:27:45.065Z,4.23
2018-07-13T15:30:13.145Z,5.00
2018-07-13T15:32:41.227Z,3.10
2018-07-13T15:35:09.438Z,3.20
2018-07-13T15:37:37.504Z,3.17
2018-07-13T15:40:05.599Z,2.60
2018-07-13T15:42:33.900Z,3.60
2018-07-13T15:45:02.408Z,2.90
2018-07-13T15:47:30.895Z,4.10
2018-07-13T15:49:59.152Z,4.20
2018-07-13T15:52:27.337Z,3.13
2018-07-13T15:54:55.711Z,2.30
2018-07-13T15:57:29.113Z,3.40
2018-07-13T16:00:04.934Z,2.63
2018-07-13T16:02:40.584Z,2.70
2018-07-13T16:05:09.095Z,2.33
2018-07-13T16:07:49.126Z,3.40
2018-07-13T16:10:26.053Z,2.80
2018-07-13T16:13:00.046Z,2.90
2018-07-13T16:15:42.577Z,2.37
2018-07-13T16:18:50.129Z,2.50
2018-07-13T16:21:50.945Z,2.50
2018-07-13T16:24:20.785Z,2.50
2018-07-13T16:26:52.376Z,2.93
2018-07-13T16:29:22.132Z,2.60
2018-07-13T16:31:59.924Z,3.30
2018-07-13T16:34:29.475Z,2.70
2018-07-13T16:37:09.438Z,3.10
2018-07-13T16:40:05.918Z,2.57
2018-07-13T16:42:42.032Z,3.60
2018-07-13T16:45:18.722Z,2.83
2018-07-13T16:48:11.451Z,3.47
2018-07-13T16:51:08.480Z,2.67
2018-07-13T16:53:46.751Z,2.40
2018-07-13T17:02:32.036Z,3.17
2018-07-13T17:05:22.288Z,2.50
2018-07-13T17:13:15.065Z,2.77
2018-07-13T17:16:10.813Z,4.93
2018-07-13T17:18:45.264Z,2.87
2018-07-13T17:24:10.573Z,3.13
2018-07-13T17:29:45.582Z,3.70
2018-07-13T17:32:18.770Z,4.20
2018-07-13T17:34:48.138Z,3.57
2018-07-13T17:37:20.789Z,3.00
2018-07-13T17:40:00.567Z,3.27
2018-07-13T17:42:33.242Z,2.87
2018-07-13T17:45:04.425Z,2.53
2018-07-13T17:47:34.840Z,3.27
2018-07-13T17:50:11.152Z,3.13
2018-07-13T17:52:42.779Z,2.60
2018-07-13T17:55:12.773Z,3.40
2018-07-13T17:57:41.276Z,7.37
2018-07-13T18:00:09.532Z,4.27
2018-07-13T18:02:38.141Z,3.03
2018-07-13T18:05:06.625Z,2.50
2018-07-13T18:07:35.176Z,3.87
2018-07-13T18:10:07.364Z,3.30
2018-07-13T18:12:35.628Z,3.33
2018-07-13T18:15:04.798Z,3.30
2018-07-13T18:17:32.992Z,5.07
2018-07-13T18:20:01.697Z,3.03
2018-07-13T18:22:29.929Z,4.50
2018-07-13T18:24:58.229Z,3.80
2018-07-13T18:27:26.419Z,4.83
2018-07-13T18:29:54.705Z,2.97
2018-07-13T18:32:22.983Z,4.57
2018-07-13T18:34:51.136Z,4.13
2018-07-13T18:37:19.329Z,3.07
2018-07-13T18:39:47.560Z,4.77
2018-07-13T18:42:15.756Z,3.10
2018-07-13T18:44:44.083Z,3.73
2018-07-13T18:47:12.512Z,3.70
2018-07-13T18:49:40.786Z,4.30
2018-07-13T18:52:09.463Z,4.17
2018-07-13T18:54:37.736Z,3.63
2018-07-13T18:57:06.310Z,3.50
2018-07-13T18:59:35.640Z,3.67
2018-07-13T19:02:04.105Z,4.10
2018-07-13T19:04:32.369Z,3.63
2018-07-13T19:07:04.322Z,2.87
2018-07-13T19:09:35.810Z,3.93
2018-07-13T19:12:06.848Z,4.83
2018-07-13T19:14:36.330Z,4.70
2018-07-13T19:17:11.929Z,3.97
2018-07-13T19:19:42.940Z,4.37
2018-07-13T19:22:13.432Z,4.40
2018-07-13T19:24:43.380Z,5.70
2018-07-13T19:30:18.007Z,3.93
2018-07-13T19:32:46.348Z,6.10
2018-07-13T19:35:16.297Z,5.30
2018-07-13T19:37:46.673Z,4.13
2018-07-13T19:40:15.035Z,6.33
2018-07-13T19:42:45.616Z,5.30
2018-07-13T19:45:14.021Z,5.37
2018-07-13T19:47:44.466Z,4.87
2018-07-13T19:50:14.992Z,4.80
2018-07-13T19:52:45.393Z,4.20
2018-07-13T19:55:13.712Z,6.53
2018-07-13T19:57:43.086Z,6.23
2018-07-13T20:00:11.525Z,4.30
2018-07-13T20:02:42.219Z,4.50
2018-07-13T20:05:12.636Z,4.63
2018-07-13T20:07:42.223Z,4.20
2018-07-13T20:10:12.686Z,4.07
2018-07-13T20:12:46.323Z,5.07
2018-07-13T20:15:14.644Z,4.53
2018-07-13T20:17:44.610Z,5.47
2018-07-13T20:20:13.724Z,5.40
2018-07-13T20:22:42.039Z,5.50
2018-07-13T20:25:10.400Z,4.67
2018-07-13T20:27:38.795Z,5.00
2018-07-13T20:30:07.776Z,5.40
2018-07-13T20:32:36.058Z,6.93
2018-07-13T20:35:04.434Z,4.53
2018-07-13T20:37:32.734Z,5.67
2018-07-13T20:40:01.073Z,5.30
2018-07-13T20:42:29.657Z,4.90
2018-07-13T20:44:58.018Z,4.57
2018-07-13T20:47:26.313Z,5.40
2018-07-13T20:49:54.696Z,4.43
2018-07-13T20:52:23.170Z,4.57
2018-07-13T20:54:55.563Z,5.10
2018-07-13T20:57:30.592Z,4.50
2018-07-13T20:59:58.963Z,4.57
2018-07-13T21:02:27.266Z,4.10
2018-07-13T21:04:55.572Z,5.10
2018-07-13T21:07:23.852Z,5.40
2018-07-13T21:09:52.185Z,4.90
2018-07-13T21:12:20.469Z,3.97
2018-07-13T21:14:48.792Z,4.53
2018-07-13T21:17:17.650Z,5.50
2018-07-13T21:19:46.093Z,5.20
2018-07-13T21:22:14.318Z,4.70
2018-07-13T21:24:42.656Z,4.30
2018-07-13T21:27:11.039Z,4.27
2018-07-13T21:29:39.356Z,6.67
2018-07-13T21:32:07.687Z,5.93
2018-07-13T21:34:35.983Z,10.13
2018-07-13T21:37:04.314Z,5.80
2018-07-13T21:39:32.635Z,6.40
2018-07-13T21:42:00.993Z,6.00
2018-07-13T21:44:29.329Z,5.43
2018-07-13T21:46:57.667Z,6.00
2018-07-13T21:49:25.986Z,6.90
2018-07-13T21:51:54.340Z,5.33
2018-07-13T21:54:22.691Z,5.53
2018-07-13T21:56:51.336Z,8.23
2018-07-13T21:59:20.407Z,5.10
2018-07-13T22:01:48.816Z,5.13
2018-07-13T22:04:17.102Z,5.20
2018-07-13T22:06:45.395Z,4.90
2018-07-13T22:09:13.681Z,5.60
2018-07-13T22:11:41.979Z,5.60
2018-07-13T22:14:10.310Z,5.67
2018-07-13T22:16:38.650Z,5.63
2018-07-13T22:19:06.984Z,5.50
2018-07-13T22:21:35.319Z,5.83
2018-07-13T22:24:03.630Z,5.70
2018-07-13T22:26:31.984Z,5.53
2018-07-13T22:29:00.271Z,4.60
2018-07-13T22:31:28.672Z,4.50
2018-07-13T22:33:56.957Z,4.20
2018-07-13T22:36:25.442Z,5.30
2018-07-13T22:38:53.764Z,5.13
2018-07-13T22:41:22.050Z,4.47
2018-07-13T22:43:50.351Z,7.30
2018-07-13T22:46:18.865Z,6.60
2018-07-13T22:48:48.039Z,5.87
2018-07-13T22:51:16.373Z,9.70
2018-07-13T22:53:44.674Z,3.53
2018-07-13T22:56:13.051Z,4.20
2018-07-13T22:58:41.309Z,4.40
2018-07-13T23:01:09.712Z,4.40
2018-07-13T23:03:37.994Z,4.13
2018-07-13T23:06:06.471Z,4.87
2018-07-13T23:08:34.776Z,4.40
2018-07-13T23:11:03.037Z,5.53
2018-07-13T23:13:31.318Z,5.50
2018-07-13T23:15:59.648Z,4.80
2018-07-13T23:18:28.585Z,5.93
2018-07-13T23:20:56.875Z,4.97
2018-07-13T23:23:25.374Z,4.03
2018-07-13T23:25:53.692Z,5.87
2018-07-13T23:28:22.001Z,4.63
2018-07-13T23:30:50.281Z,5.30
2018-07-13T23:33:18.589Z,5.37
2018-07-13T23:35:47.006Z,5.10
2018-07-13T23:38:15.414Z,5.50
2018-07-13T23:40:43.806Z,5.00
2018-07-13T23:43:12.174Z,5.40
2018-07-13T23:45:40.472Z,4.73
2018-07-13T23:48:08.788Z,5.03
2018-07-13T23:50:37.090Z,6.00
2018-07-13T23:53:05.359Z,6.83
2018-07-13T23:55:34.017Z,4.97
2018-07-13T23:58:02.307Z,5.53
